Beaverdale, PA

6:38 AM EDT on September 16, 2014 (GMT -0400)
Portage Boro | Change Station
CLOSE
Current Station
Personal Weather Station
Location: Portage, PA
Elevation: 1690 ft
Nearby Weather Stations

Elev 1690 ft 40.39 °N, 78.67 °W | Updated 3 seconds ago

Overcast
Overcast
53.8 °F
Feels Like 53.8 °F
N
0.0
Wind Variable Wind from West
Gusts 0.0 mph

Today
High -- | Low -- °F
--% Chance of Precip.
Yesterday
High -- | Low -- °F
Precip. -- in
6:56 AM 7:21 PM
Waning Gibbous, 46% visible
Pressure 30.04 in
Visibility 6.0 miles
Clouds Overcast 800 ft
Dew Point 53 °F
Humidity 97%
Rainfall 0.04 in
Snow Depth Not available.
UV 0 out of 12
Pollen 3.80 out of 12
Air Quality Not available.
Flu Activity Not available.
METAR KJST 160954Z AUTO 27006KT 6SM BR OVC008 11/11 A3004 RMK AO2 RAE0856 CIG 003V012 SLP170 P0000 T01110106

More Conditions Fewer Conditions

Pressure 30.04 in
Visibility 6.0 miles
Clouds Overcast 800 ft
Dew Point 53 °F
Humidity 97%
Rainfall 0.04 in
Snow Depth Not available.
UV 0 out of 12
Pollen 3.80 out of 12
Air Quality Not available.
Flu Activity Not available.
METAR KJST 160954Z AUTO 27006KT 6SM BR OVC008 11/11 A3004 RMK AO2 RAE0856 CIG 003V012 SLP170 P0000 T01110106

More Conditions Fewer Conditions

10-Day Weather Forecast

Almanac

Astronomy

Sep. 16, 2014 Rise Set
Actual Time 6:56 AM EDT 7:21 PM EDT
Civil Twilight 6:29 AM EDT 7:49 PM EDT
Nautical Twilight 5:57 AM EDT 8:21 PM EDT
Astronomical Twilight 5:24 AM EDT 8:54 PM EDT
Moon 12:04 AM EDT 2:44 PM EDT
Length of Visible Light 13h 19m
Length of Day
12h 25m
Tomorrow will be 2m 39s shorter.
Waning Gibbous, 46% of the Moon is Illuminated
Today
Waning Gibbous
Sep 24
New
Oct 1
First Quarter
Oct 8
Full
Oct 15
Last Quarter

Today's Extremes

State Highs State Lows

Community

WunderPhotos

Upload Photos

1,753,720 photos uploaded!

WunderBlogs® & News

Nearby

Snow Depth

Station Depth Elevation
No new snow has been reported.

Earthquake Activity

City Distance Mag. Time & Date
No recent earthquake activity has been reported nearby.
Minimum magnitude displayed is 2.5.

Coastal Water Temperatures

Place Temperature
No Stations Reporting

Nearby Weather Stations